createdAt,value
2023-08-05T00:00:20.487Z,6.28
2023-08-05T00:02:49.192Z,6.50
2023-08-05T00:05:18.055Z,6.83
2023-08-05T00:07:51.336Z,6.28
2023-08-05T00:10:20.206Z,5.83
2023-08-05T00:12:49.104Z,6.20
2023-08-05T00:15:19.642Z,5.95
2023-08-05T00:17:48.390Z,6.58
2023-08-05T00:20:17.260Z,6.40
2023-08-05T00:22:47.365Z,6.17
2023-08-05T00:25:16.195Z,5.80
2023-08-05T00:27:45.069Z,6.30
2023-08-05T00:30:14.370Z,6.10
2023-08-05T00:32:43.228Z,6.55
2023-08-05T00:35:12.063Z,6.30
2023-08-05T00:37:41.023Z,6.15
2023-08-05T00:40:11.175Z,6.30
2023-08-05T00:42:40.080Z,6.03
2023-08-05T00:45:09.625Z,6.00
2023-08-05T00:47:41.287Z,6.60
2023-08-05T00:50:11.064Z,5.95
2023-08-05T00:52:41.209Z,5.85
2023-08-05T00:55:10.142Z,5.85
2023-08-05T00:57:39.165Z,6.08
2023-08-05T01:00:09.345Z,6.05
2023-08-05T01:02:38.101Z,6.12
2023-08-05T01:05:07.128Z,6.12
2023-08-05T01:07:54.769Z,6.42
2023-08-05T01:10:25.141Z,6.17
2023-08-05T01:12:53.880Z,6.10
2023-08-05T01:15:22.852Z,6.33
2023-08-05T01:17:54.333Z,6.17
2023-08-05T01:20:26.100Z,6.83
2023-08-05T01:22:58.543Z,5.78
2023-08-05T01:25:30.428Z,6.50
2023-08-05T01:28:01.898Z,7.20
2023-08-05T01:30:33.255Z,6.25
2023-08-05T01:33:05.423Z,5.92
2023-08-05T01:35:34.184Z,6.08
2023-08-05T01:38:02.961Z,5.97
2023-08-05T01:40:31.971Z,5.92
2023-08-05T01:43:04.416Z,5.90
2023-08-05T01:45:34.724Z,5.95
2023-08-05T01:48:03.576Z,5.83
2023-08-05T01:50:32.421Z,6.17
2023-08-05T01:53:02.784Z,5.97
2023-08-05T01:55:31.704Z,6.30
2023-08-05T01:58:03.737Z,6.10
2023-08-05T02:00:32.721Z,5.80
2023-08-05T02:03:01.624Z,6.00
2023-08-05T02:05:30.498Z,6.12
2023-08-05T02:07:59.239Z,5.95
2023-08-05T02:10:27.990Z,6.87
2023-08-05T02:12:58.439Z,6.28
2023-08-05T02:15:28.989Z,6.15
2023-08-05T02:17:57.881Z,6.20
2023-08-05T02:20:26.729Z,6.47
2023-08-05T02:22:55.421Z,6.70
2023-08-05T02:25:25.846Z,6.45
2023-08-05T02:27:54.565Z,6.90
2023-08-05T02:30:23.270Z,6.67
2023-08-05T02:32:52.017Z,6.55
2023-08-05T02:35:20.720Z,7.00
2023-08-05T02:37:49.527Z,6.75
2023-08-05T02:40:18.421Z,6.72
2023-08-05T02:42:49.120Z,6.53
2023-08-05T02:45:17.971Z,6.37
2023-08-05T02:47:46.859Z,6.58
2023-08-05T02:50:15.709Z,6.12
2023-08-05T02:52:44.319Z,5.95
2023-08-05T02:55:13.223Z,6.30
2023-08-05T02:57:41.925Z,6.92
2023-08-05T03:00:11.994Z,5.95
2023-08-05T03:02:40.829Z,6.97
2023-08-05T03:05:09.929Z,6.80
2023-08-05T03:07:38.723Z,6.78
2023-08-05T03:10:08.057Z,6.37
2023-08-05T03:12:37.087Z,6.17
2023-08-05T03:15:06.247Z,6.62
2023-08-05T03:17:36.568Z,6.65
2023-08-05T03:20:07.042Z,6.70
2023-08-05T03:22:35.905Z,6.25
2023-08-05T03:25:04.654Z,6.30
2023-08-05T03:27:33.513Z,6.65
2023-08-05T03:30:02.232Z,6.15
2023-08-05T03:32:30.981Z,6.60
2023-08-05T03:34:59.774Z,6.58
2023-08-05T03:37:30.934Z,6.78
2023-08-05T03:40:04.122Z,6.40
2023-08-05T03:42:32.951Z,6.10
2023-08-05T03:45:01.815Z,6.58
2023-08-05T03:47:36.193Z,6.12
2023-08-05T03:50:05.294Z,7.10
2023-08-05T03:52:41.504Z,6.15
2023-08-05T03:55:10.562Z,6.12
2023-08-05T03:57:40.874Z,5.75
2023-08-05T04:00:10.601Z,6.28
2023-08-05T04:02:39.542Z,6.62
2023-08-05T04:05:08.725Z,5.90
2023-08-05T04:07:38.987Z,6.05
2023-08-05T04:10:08.707Z,6.12
2023-08-05T04:12:37.702Z,6.25
2023-08-05T04:15:09.365Z,6.17
2023-08-05T04:17:38.145Z,5.62
2023-08-05T04:20:08.093Z,5.80
2023-08-05T04:22:37.957Z,5.70
2023-08-05T04:25:07.877Z,5.78
2023-08-05T04:27:38.536Z,5.62
2023-08-05T04:30:09.189Z,5.97
2023-08-05T04:32:42.423Z,5.90
2023-08-05T04:35:11.657Z,5.85
2023-08-05T04:37:40.397Z,5.87
2023-08-05T04:40:12.913Z,6.37
2023-08-05T04:42:41.741Z,6.42
2023-08-05T04:45:12.348Z,6.03
2023-08-05T04:47:42.726Z,5.62
2023-08-05T04:50:13.428Z,5.35
2023-08-05T04:52:45.517Z,5.60
2023-08-05T04:55:16.931Z,5.87
2023-08-05T04:57:47.378Z,5.42
2023-08-05T05:00:16.168Z,5.95
2023-08-05T05:02:44.858Z,5.67
2023-08-05T05:05:14.255Z,6.25
2023-08-05T05:07:43.051Z,5.85
2023-08-05T05:10:13.686Z,5.97
2023-08-05T05:12:44.223Z,5.25
2023-08-05T05:15:13.309Z,6.30
2023-08-05T05:17:42.149Z,5.70
2023-08-05T05:20:11.316Z,6.30
2023-08-05T05:22:40.340Z,6.58
2023-08-05T05:25:09.332Z,5.70
2023-08-05T05:27:38.904Z,6.00
2023-08-05T05:30:08.473Z,6.17
2023-08-05T05:32:37.561Z,6.30
2023-08-05T05:35:06.664Z,6.05
2023-08-05T05:37:37.010Z,5.97
2023-08-05T05:40:06.206Z,5.78
2023-08-05T05:42:35.022Z,6.65
2023-08-05T05:45:04.206Z,6.22
2023-08-05T05:47:32.933Z,5.90
2023-08-05T05:50:01.942Z,6.50
2023-08-05T05:52:31.315Z,6.75
2023-08-05T05:55:00.129Z,6.10
2023-08-05T05:57:29.019Z,6.20
2023-08-05T06:00:00.928Z,5.97
2023-08-05T06:02:33.477Z,6.17
2023-08-05T06:05:02.456Z,6.10
2023-08-05T06:07:33.593Z,5.45
2023-08-05T06:10:04.212Z,5.75
2023-08-05T06:12:34.641Z,5.67
2023-08-05T06:15:05.391Z,6.10
2023-08-05T06:17:34.279Z,6.15
2023-08-05T06:20:04.050Z,5.78
2023-08-05T06:22:32.722Z,5.53
2023-08-05T06:25:01.791Z,5.95
2023-08-05T06:27:31.977Z,5.67
2023-08-05T06:30:01.487Z,6.08
2023-08-05T06:32:30.320Z,5.70
2023-08-05T06:34:59.221Z,6.15
2023-08-05T06:37:27.814Z,5.78
2023-08-05T06:39:58.504Z,5.60
2023-08-05T06:42:36.539Z,5.10
2023-08-05T06:45:10.978Z,5.12
2023-08-05T06:47:40.085Z,5.20
2023-08-05T06:50:10.986Z,5.80
2023-08-05T06:52:39.705Z,5.97
2023-08-05T06:55:09.978Z,6.20
2023-08-05T06:57:42.853Z,6.08
2023-08-05T07:00:12.587Z,5.62
2023-08-05T07:02:41.394Z,5.97
2023-08-05T07:05:10.287Z,6.33
2023-08-05T07:07:38.975Z,5.78
2023-08-05T07:10:10.025Z,6.65
2023-08-05T07:12:40.334Z,6.10
2023-08-05T07:15:13.661Z,5.80
2023-08-05T07:17:43.223Z,6.62
2023-08-05T07:20:12.563Z,6.20
2023-08-05T07:22:41.524Z,5.92
2023-08-05T07:25:10.383Z,6.35
2023-08-05T07:27:39.123Z,6.05
2023-08-05T07:30:09.281Z,6.17
2023-08-05T07:32:38.196Z,5.85
2023-08-05T07:35:09.175Z,5.62
2023-08-05T07:37:38.024Z,6.20
2023-08-05T07:40:08.765Z,5.97
2023-08-05T07:42:37.516Z,5.78
2023-08-05T07:45:08.290Z,6.40
2023-08-05T07:47:38.533Z,5.72
2023-08-05T07:50:08.664Z,5.83
2023-08-05T07:52:37.540Z,5.87
2023-08-05T07:55:10.411Z,5.40
2023-08-05T07:57:42.253Z,5.45
2023-08-05T08:00:13.176Z,6.50
2023-08-05T08:02:45.981Z,5.67
2023-08-05T08:05:19.632Z,6.20
2023-08-05T08:07:48.677Z,6.03
2023-08-05T08:10:17.900Z,6.25
2023-08-05T08:12:49.687Z,6.42
2023-08-05T08:15:30.465Z,5.90
2023-08-05T08:17:59.531Z,5.92
2023-08-05T08:20:28.370Z,5.85
2023-08-05T08:23:07.194Z,6.12
2023-08-05T08:25:38.478Z,5.95
2023-08-05T08:28:35.049Z,6.53
2023-08-05T08:37:02.416Z,6.70
2023-08-05T08:39:31.285Z,6.83
2023-08-05T08:42:00.287Z,6.25
2023-08-05T08:44:35.271Z,5.80
2023-08-05T08:47:15.052Z,6.95
2023-08-05T08:49:47.432Z,7.08
2023-08-05T08:52:23.167Z,6.47
2023-08-05T08:55:00.572Z,7.22
2023-08-05T08:57:31.222Z,7.20
2023-08-05T09:00:01.857Z,7.80
2023-08-05T09:02:32.978Z,7.72
2023-08-05T09:05:11.768Z,7.47
2023-08-05T09:07:46.477Z,7.40
2023-08-05T09:14:00.322Z,7.05
2023-08-05T09:16:20.989Z,7.70
2023-08-05T09:18:59.357Z,7.80
2023-08-05T09:21:28.068Z,7.20
2023-08-05T09:23:58.030Z,7.25
2023-08-05T09:26:33.533Z,7.67
2023-08-05T09:29:09.055Z,7.42
2023-08-05T09:31:39.368Z,7.95
2023-08-05T09:34:10.740Z,7.78
2023-08-05T09:36:41.936Z,6.85
2023-08-05T09:39:18.038Z,7.50
2023-08-05T09:41:59.251Z,7.17
2023-08-05T09:44:28.937Z,7.00
2023-08-05T09:47:11.511Z,7.28
2023-08-05T09:49:42.923Z,6.25
2023-08-05T09:52:15.124Z,6.87
2023-08-05T09:54:47.434Z,7.17
2023-08-05T09:57:29.997Z,6.25
2023-08-05T10:00:06.859Z,6.50
2023-08-05T10:02:37.389Z,6.87
2023-08-05T10:05:09.180Z,6.85
2023-08-05T10:08:06.023Z,6.60
2023-08-05T10:10:33.018Z,6.30
2023-08-05T10:13:07.102Z,6.08
2023-08-05T10:15:41.944Z,6.20
2023-08-05T10:18:12.580Z,6.60
2023-08-05T10:20:46.038Z,6.05
2023-08-05T10:23:19.709Z,6.50
2023-08-05T10:25:53.964Z,6.53
2023-08-05T10:28:28.730Z,6.58
2023-08-05T10:30:58.894Z,6.62
2023-08-05T10:33:30.582Z,6.78
2023-08-05T10:36:09.547Z,6.28
2023-08-05T10:38:44.495Z,6.72
2023-08-05T10:41:18.961Z,6.65
2023-08-05T10:43:48.582Z,7.10
2023-08-05T10:46:19.049Z,6.40
2023-08-05T10:48:52.302Z,5.92
2023-08-05T10:51:24.221Z,6.03
2023-08-05T10:54:08.175Z,5.95
2023-08-05T10:56:39.732Z,5.90
2023-08-05T10:59:15.276Z,6.28
2023-08-05T11:02:01.417Z,6.87
2023-08-05T11:04:49.471Z,6.17
2023-08-05T11:07:30.363Z,6.92
2023-08-05T11:10:00.581Z,6.78
2023-08-05T11:12:32.794Z,6.65
2023-08-05T11:15:05.062Z,6.75
2023-08-05T11:17:35.407Z,6.03
2023-08-05T11:20:07.869Z,6.42
2023-08-05T11:22:37.948Z,6.42
2023-08-05T11:25:10.400Z,6.53
2023-08-05T11:27:43.308Z,6.30
2023-08-05T11:30:19.971Z,5.83
2023-08-05T11:32:58.890Z,6.40
2023-08-05T11:35:31.064Z,6.33
2023-08-05T11:38:00.317Z,6.00
2023-08-05T11:40:29.322Z,6.45
2023-08-05T11:42:58.982Z,6.20
2023-08-05T11:45:27.808Z,5.87
2023-08-05T11:47:56.966Z,6.25
2023-08-05T11:50:28.800Z,6.00
2023-08-05T11:53:08.991Z,6.03
2023-08-05T11:55:43.544Z,5.75
2023-08-05T11:58:16.239Z,5.95
2023-08-05T12:00:50.520Z,5.62
2023-08-05T12:03:22.858Z,5.85
2023-08-05T12:05:51.703Z,6.00
2023-08-05T12:08:46.499Z,6.22
2023-08-05T12:11:25.963Z,6.08
2023-08-05T12:16:57.554Z,6.20
2023-08-05T12:19:28.295Z,5.85
2023-08-05T12:21:57.386Z,6.03
2023-08-05T12:24:26.134Z,5.50
2023-08-05T12:26:55.029Z,5.65
2023-08-05T12:29:23.739Z,5.65
2023-08-05T12:31:52.655Z,5.25
2023-08-05T12:34:23.362Z,5.47
2023-08-05T12:36:53.700Z,5.90
2023-08-05T12:39:22.531Z,6.03
2023-08-05T12:44:50.543Z,5.65
2023-08-05T12:47:27.204Z,5.40
2023-08-05T12:49:59.561Z,5.70
2023-08-05T12:52:34.103Z,5.85
2023-08-05T12:55:07.435Z,5.75
2023-08-05T12:57:36.647Z,6.22
2023-08-05T13:00:06.011Z,6.60
2023-08-05T13:02:37.276Z,5.97
2023-08-05T13:05:06.321Z,5.75
2023-08-05T13:07:38.000Z,5.90
2023-08-05T13:10:10.327Z,6.05
2023-08-05T13:12:41.800Z,6.25
2023-08-05T13:15:11.474Z,5.92
2023-08-05T13:17:40.321Z,5.58
2023-08-05T13:20:10.078Z,5.25
2023-08-05T13:22:40.122Z,4.90
2023-08-05T13:25:17.509Z,5.40
2023-08-05T13:27:49.696Z,4.87
2023-08-05T13:30:29.016Z,5.80
2023-08-05T13:32:59.775Z,5.42
2023-08-05T13:35:31.702Z,5.03
2023-08-05T13:38:19.194Z,5.50
2023-08-05T13:41:08.192Z,4.70
2023-08-05T13:49:45.068Z,5.08
2023-08-05T13:52:15.458Z,4.67
2023-08-05T13:54:56.459Z,5.10
2023-08-05T13:57:55.834Z,5.08
2023-08-05T14:00:24.938Z,4.95
2023-08-05T14:02:56.700Z,5.00
2023-08-05T14:05:25.664Z,4.55
2023-08-05T14:08:02.058Z,4.50
2023-08-05T14:10:30.844Z,4.47
2023-08-05T14:12:59.730Z,5.15
2023-08-05T14:15:44.961Z,4.83
2023-08-05T14:18:15.063Z,4.67
2023-08-05T14:20:48.548Z,5.00
2023-08-05T14:23:17.931Z,4.50
2023-08-05T14:25:51.288Z,4.45
2023-08-05T14:28:21.981Z,4.30
2023-08-05T14:30:51.016Z,4.22
2023-08-05T14:33:22.998Z,4.80
2023-08-05T14:35:54.470Z,4.85
2023-08-05T14:38:22.768Z,4.55
2023-08-05T14:40:51.827Z,4.58
2023-08-05T14:43:21.090Z,4.00
2023-08-05T14:46:00.972Z,4.67
2023-08-05T14:48:40.782Z,4.90
2023-08-05T14:51:10.358Z,4.05
2023-08-05T14:53:55.458Z,3.98
2023-08-05T14:56:30.957Z,4.20
2023-08-05T14:59:05.818Z,4.47
2023-08-05T15:01:36.359Z,4.10
2023-08-05T15:07:19.848Z,4.58
2023-08-05T15:13:34.733Z,4.25
2023-08-05T15:16:13.803Z,4.37
2023-08-05T15:18:45.108Z,4.20
2023-08-05T15:21:14.193Z,4.33
2023-08-05T15:23:44.929Z,4.40
2023-08-05T15:26:13.487Z,4.10
2023-08-05T15:28:42.220Z,4.00
2023-08-05T15:31:26.263Z,4.65
2023-08-05T15:34:02.792Z,4.45
2023-08-05T15:36:37.744Z,4.70
2023-08-05T15:39:13.666Z,4.53
2023-08-05T15:41:55.033Z,4.80
2023-08-05T15:44:30.149Z,4.20
2023-08-05T15:47:37.884Z,5.00
2023-08-05T15:49:39.596Z,5.00
2023-08-05T15:52:11.612Z,4.40
2023-08-05T15:54:45.309Z,4.67
2023-08-05T15:57:18.773Z,4.80
2023-08-05T15:59:54.232Z,4.62
2023-08-05T16:02:27.211Z,5.00
2023-08-05T16:04:58.141Z,5.08
2023-08-05T16:07:31.727Z,5.05
2023-08-05T16:10:10.562Z,5.00
2023-08-05T16:12:41.427Z,5.87
2023-08-05T16:15:12.258Z,5.45
2023-08-05T16:17:43.910Z,6.17
2023-08-05T16:20:16.539Z,5.70
2023-08-05T16:22:56.286Z,6.10
2023-08-05T16:25:23.513Z,6.17
2023-08-05T16:30:50.273Z,6.70
2023-08-05T16:33:42.782Z,6.42
2023-08-05T16:36:13.343Z,6.47
2023-08-05T16:38:44.762Z,6.92
2023-08-05T16:41:13.781Z,6.60
2023-08-05T16:43:44.292Z,6.78
2023-08-05T16:46:13.582Z,6.37
2023-08-05T16:48:42.437Z,6.92
2023-08-05T16:51:12.677Z,7.03
2023-08-05T16:53:41.959Z,6.90
2023-08-05T16:56:11.695Z,6.95
2023-08-05T16:58:42.303Z,7.33
2023-08-05T17:01:33.649Z,6.42
2023-08-05T17:04:04.132Z,7.15
2023-08-05T17:06:33.256Z,6.67
2023-08-05T17:09:02.111Z,7.22
2023-08-05T17:12:05.069Z,7.15
2023-08-05T17:15:03.063Z,7.58
2023-08-05T17:17:24.067Z,7.40
2023-08-05T17:19:52.928Z,7.55
2023-08-05T17:22:26.203Z,7.83
2023-08-05T17:24:56.761Z,7.62
2023-08-05T17:27:27.368Z,7.85
2023-08-05T17:29:56.225Z,7.60
2023-08-05T17:32:41.384Z,7.40
2023-08-05T17:35:10.548Z,7.47
2023-08-05T17:37:42.420Z,7.25
2023-08-05T17:40:14.313Z,7.83
2023-08-05T17:42:43.105Z,7.10
2023-08-05T17:45:15.347Z,7.75
2023-08-05T17:47:45.079Z,8.08
2023-08-05T17:50:13.970Z,7.78
2023-08-05T17:52:50.116Z,8.35
2023-08-05T17:55:18.916Z,8.63
2023-08-05T17:57:52.314Z,7.70
2023-08-05T18:00:22.521Z,8.35
2023-08-05T18:02:51.279Z,9.00
2023-08-05T18:05:20.256Z,9.48
2023-08-05T18:07:49.082Z,8.20
2023-08-05T18:10:17.852Z,9.20
2023-08-05T18:12:47.104Z,10.10
2023-08-05T18:15:16.424Z,11.22
2023-08-05T18:17:46.870Z,10.72
2023-08-05T18:20:15.745Z,10.55
2023-08-05T18:22:45.033Z,9.65
2023-08-05T18:25:13.818Z,10.40
2023-08-05T18:27:42.550Z,9.23
2023-08-05T18:30:11.749Z,10.45
2023-08-05T18:32:41.995Z,10.82
2023-08-05T18:35:14.074Z,11.00
2023-08-05T18:37:45.317Z,11.18
2023-08-05T18:40:16.294Z,10.38
2023-08-05T18:42:47.322Z,11.18
2023-08-05T18:45:15.697Z,10.75
2023-08-05T18:47:44.537Z,11.20
2023-08-05T18:50:15.379Z,6.67
2023-08-05T18:52:44.929Z,4.97
2023-08-05T18:55:13.735Z,5.30
2023-08-05T18:57:42.472Z,5.45
2023-08-05T19:00:12.021Z,4.95
2023-08-05T19:02:40.778Z,4.10
2023-08-05T19:05:10.769Z,3.90
2023-08-05T19:07:39.750Z,2.98
2023-08-05T19:10:08.498Z,3.20
2023-08-05T19:12:37.137Z,2.62
2023-08-05T19:15:07.123Z,3.10
2023-08-05T19:17:42.424Z,2.75
2023-08-05T19:20:23.326Z,2.75
2023-08-05T19:22:52.255Z,3.20
2023-08-05T19:25:22.804Z,2.98
2023-08-05T19:28:00.467Z,2.83
2023-08-05T19:30:38.265Z,2.30
2023-08-05T19:33:12.061Z,2.70
2023-08-05T19:35:43.307Z,2.60
2023-08-05T19:38:12.496Z,2.35
2023-08-05T19:40:58.413Z,2.33
2023-08-05T19:43:35.283Z,3.00
2023-08-05T19:46:09.547Z,2.75
2023-08-05T19:48:38.758Z,2.40
2023-08-05T19:51:14.311Z,2.30
2023-08-05T19:53:41.345Z,2.62
2023-08-05T19:56:10.190Z,2.87
2023-08-05T19:58:39.281Z,2.60
2023-08-05T20:01:10.000Z,2.37
2023-08-05T20:03:38.987Z,2.62
2023-08-05T20:06:10.696Z,2.60
2023-08-05T20:08:40.890Z,2.60
2023-08-05T20:11:13.170Z,2.30
2023-08-05T20:13:42.012Z,2.37
2023-08-05T20:16:10.780Z,1.90
2023-08-05T20:18:39.558Z,2.50
2023-08-05T20:21:08.254Z,2.40
2023-08-05T20:23:37.616Z,2.42
2023-08-05T20:26:12.400Z,2.12
2023-08-05T20:28:41.165Z,2.30
2023-08-05T20:31:11.617Z,2.52
2023-08-05T20:36:34.780Z,2.08
2023-08-05T20:39:04.571Z,2.83
2023-08-05T20:41:33.266Z,2.08
2023-08-05T20:44:02.090Z,2.22
2023-08-05T20:46:30.946Z,2.52
2023-08-05T20:48:59.624Z,2.10
2023-08-05T20:51:31.496Z,2.30
2023-08-05T20:54:00.305Z,2.50
2023-08-05T20:56:28.998Z,1.92
2023-08-05T20:58:57.809Z,2.10
2023-08-05T21:01:26.617Z,2.45
2023-08-05T21:03:55.427Z,2.25
2023-08-05T21:06:24.143Z,2.45
2023-08-05T21:08:52.858Z,2.10
2023-08-05T21:11:21.642Z,2.40
2023-08-05T21:13:50.405Z,2.20
2023-08-05T21:16:20.253Z,2.05
2023-08-05T21:18:49.139Z,2.20
2023-08-05T21:21:18.004Z,2.00
2023-08-05T21:23:46.863Z,2.10
2023-08-05T21:26:16.564Z,2.00
2023-08-05T21:28:45.388Z,2.30
2023-08-05T21:31:14.243Z,2.30
2023-08-05T21:33:42.935Z,2.25
2023-08-05T21:36:11.943Z,2.02
2023-08-05T21:38:40.827Z,2.08
2023-08-05T21:48:00.143Z,2.30
2023-08-05T21:50:28.986Z,2.22
2023-08-05T21:52:57.702Z,2.27
2023-08-05T21:55:26.356Z,2.35
2023-08-05T21:57:55.105Z,2.20
2023-08-05T22:00:25.704Z,2.10
2023-08-05T22:02:54.497Z,2.10
2023-08-05T22:05:23.469Z,2.33
2023-08-05T22:07:52.643Z,2.40
2023-08-05T22:10:22.253Z,2.52
2023-08-05T22:12:51.945Z,2.62
2023-08-05T22:15:20.801Z,2.95
2023-08-05T22:17:50.143Z,3.20
2023-08-05T22:20:18.951Z,3.42
2023-08-05T22:22:49.610Z,3.72
2023-08-05T22:25:18.511Z,4.25
2023-08-05T22:27:47.595Z,4.05
2023-08-05T22:30:16.487Z,3.75
2023-08-05T22:32:45.555Z,3.95
2023-08-05T22:35:14.364Z,3.62
2023-08-05T22:37:47.751Z,4.58
2023-08-05T22:40:19.395Z,4.08
2023-08-05T22:42:47.156Z,4.17
2023-08-05T22:45:16.094Z,3.40
2023-08-05T22:47:47.996Z,3.37
2023-08-05T22:50:19.705Z,3.45
2023-08-05T22:52:48.411Z,3.83
2023-08-05T22:55:17.329Z,3.62
2023-08-05T22:57:46.157Z,4.05
2023-08-05T23:00:15.387Z,3.90
2023-08-05T23:03:12.608Z,3.98
2023-08-05T23:05:43.902Z,3.35
2023-08-05T23:08:12.946Z,3.58
2023-08-05T23:10:46.124Z,4.17
2023-08-05T23:14:03.468Z,3.67
2023-08-05T23:16:36.685Z,4.10
2023-08-05T23:19:10.355Z,3.55
2023-08-05T23:21:44.317Z,3.50
2023-08-05T23:24:13.312Z,3.62
2023-08-05T23:26:42.525Z,3.30
2023-08-05T23:29:11.519Z,3.70
2023-08-05T23:31:42.163Z,4.03
2023-08-05T23:34:13.893Z,4.50
2023-08-05T23:36:42.632Z,4.85
2023-08-05T23:39:19.663Z,3.55
2023-08-05T23:41:48.447Z,3.60
2023-08-05T23:44:17.508Z,4.20
2023-08-05T23:46:46.273Z,3.50
2023-08-05T23:49:15.448Z,3.50
2023-08-05T23:51:44.079Z,3.45
2023-08-05T23:54:12.888Z,3.50
2023-08-05T23:56:43.265Z,3.20
2023-08-05T23:59:12.252Z,3.42
